Weather reports worldwide

Advertisment
Wasserkuppe, Germany (10544): temperature & dewpoint: 09.12.2018 07:00:00 - 15.12.2018 07:00:00 (CET)Wasserkuppe, Germany (10544): temperature 5cm & temperature -5cm: 09.12.2018 07:00:00 - 15.12.2018 07:00:00 (CET)Wasserkuppe, Germany (10544): temperature -20cm & temperature -100cm: 09.12.2018 07:00:00 - 15.12.2018 07:00:00 (CET)Wasserkuppe, Germany (10544): wind speed & gusts: 09.12.2018 07:00:00 - 15.12.2018 07:00:00 (CET)Wasserkuppe, Germany (10544): wind direction: 09.12.2018 07:00:00 - 15.12.2018 07:00:00 (CET)Wasserkuppe, Germany (10544): visibility: 09.12.2018 07:00:00 - 15.12.2018 07:00:00 (CET)Wasserkuppe, Germany (10544): sunshine duration: 09.12.2018 07:00:00 - 15.12.2018 07:00:00 (CET)Wasserkuppe, Germany (10544): precipitation: 09.12.2018 07:00:00 - 15.12.2018 07:00:00 (CET)
Date & Time tt [°C] td [°C] tt 5cm [°C] tt -5cm [°C] tt -20cm [°C] tt -100cm [°C] ff [km/h] ff [kn] fx [km/h] fx [kn] dd vv [km] sd [min] rr [mm]
15.12.2018 07:00:00 -6,8 -7,8 -6,7 0,7 2,0 5,0 17 9 24 13 ESE 15 0 0,0
15.12.2018 06:00:00 -6,8 -7,9 -6,8 0,7 2,0 5,0 14 8 27 15 ESE 15 0 0,0
15.12.2018 05:00:00 -6,7 -7,8 -6,7 0,7 2,0 5,0 21 11 29 16 SE 15 0 0,0
15.12.2018 04:00:00 -6,7 -7,7 -6,7 0,7 2,0 5,0 17 9 28 15 SE 15 0 0,0
15.12.2018 03:00:00 -6,8 -7,8 -6,8 0,7 2,0 5,0 20 11 28 15 ESE 15 0 0,0
15.12.2018 02:00:00 -6,8 -7,8 -6,8 0,7 2,0 5,0 19 10 35 19 ESE 15 0 0,0
15.12.2018 01:00:00 -6,7 -7,6 -6,7 0,7 2,0 5,0 17 9 29 16 SE 15 0 0,0
15.12.2018 00:00:00 -6,8 -7,7 -6,8 0,7 2,0 5,1 22 12 31 17 SE 12 0 0,0
14.12.2018 23:00:00 -6,9 -7,8 -6,9 0,7 2,0 5,1 22 12 34 19 ESE 12 0 0,0
14.12.2018 22:00:00 -6,7 -7,6 -6,7 0,7 2,0 5,1 18 10 29 15 SE 12 0 0,0
14.12.2018 21:00:00 -6,7 -7,8 -6,7 0,7 2,0 5,1 19 10 29 16 ESE 18 0 0,0
14.12.2018 20:00:00 -6,6 -7,8 -6,7 0,7 2,0 5,1 18 10 37 20 ESE 25 0 0,0
14.12.2018 19:00:00 -6,6 -8,0 -6,7 0,7 2,0 5,1 20 11 30 16 ESE 27 0 0,0
14.12.2018 18:00:00 -6,5 -8,1 -6,6 0,7 2,0 5,1 17 9 29 16 E 28 0 -
14.12.2018 17:00:00 -6,6 -8,2 -6,7 0,7 2,0 5,1 15 8 27 15 E 26 0 0,0
14.12.2018 16:00:00 -6,7 -8,4 -6,8 0,7 2,0 5,1 17 9 35 19 E 24 0 0,0
14.12.2018 15:00:00 -6,9 -8,7 -6,9 0,7 2,0 5,1 21 11 33 18 E 24 0 0,0
14.12.2018 14:00:00 -6,8 -8,2 -6,6 0,7 2,0 5,1 20 11 29 16 E 16 0 0,0
14.12.2018 13:00:00 -6,5 -8,0 -6,4 0,7 2,0 5,1 16 9 28 15 ESE 16 0 0,0
14.12.2018 12:00:00 -6,3 -7,8 -6,1 0,7 2,0 5,1 20 11 29 16 ESE 17 0 0,0
14.12.2018 11:00:00 -6,4 -8,1 -6,2 0,7 2,0 5,1 18 10 37 20 E 22 0 0,0
14.12.2018 10:00:00 -6,5 -8,1 -6,5 0,7 2,1 5,1 24 13 41 22 E 20 0 0,0
14.12.2018 09:00:00 -6,6 -8,1 -6,7 0,7 2,1 5,1 27 15 43 23 ESE 18 0 0,0
14.12.2018 08:00:00 -6,6 -7,9 -6,6 0,7 2,1 5,1 23 13 50 27 E 15 0 0,0
14.12.2018 07:00:00 -6,6 -8,1 -6,8 0,7 2,1 5,1 29 16 50 27 E 30 0 0,0
14.12.2018 06:00:00 -6,7 -8,6 -6,9 0,7 2,1 5,1 23 12 46 25 E 40 0 0,0
14.12.2018 05:00:00 -6,7 -8,0 -6,7 0,7 2,1 5,1 23 12 41 22 E 30 0 0,0
14.12.2018 04:00:00 -6,7 -8,2 -6,8 0,7 2,1 5,1 21 12 46 25 E 25 0 0,0
14.12.2018 03:00:00 -6,7 -8,1 -6,8 0,7 2,1 5,1 30 16 46 25 E 25 0 0,0
14.12.2018 02:00:00 -6,6 -7,9 -6,7 0,7 2,1 5,1 33 18 45 25 E 25 0 0,0
14.12.2018 01:00:00 -6,6 -7,7 -6,6 0,7 2,1 5,1 31 17 55 30 E 25 0 0,0
14.12.2018 00:00:00 -6,9 -8,3 -7,0 0,7 2,1 5,1 37 20 53 29 E 30 0 0,0
13.12.2018 23:00:00 -6,7 -7,9 -7,0 0,7 2,1 5,1 34 18 48 26 E 30 0 0,0
13.12.2018 22:00:00 -6,6 -7,7 -6,8 0,7 2,1 5,1 35 19 52 28 E 25 0 0,0
13.12.2018 21:00:00 -6,2 -7,4 -6,4 0,7 2,1 5,1 39 21 55 30 E 25 0 0,0
13.12.2018 20:00:00 -5,9 -6,9 -6,1 0,7 2,1 5,1 39 21 56 31 E 25 0 0,0
13.12.2018 19:00:00 -6,1 -7,3 -6,4 0,7 2,1 5,1 37 20 53 29 E 27 0 0,0
13.12.2018 18:00:00 -6,2 -7,5 -6,6 0,7 2,1 5,1 29 16 44 24 E 30 0 0,0
13.12.2018 17:00:00 -5,9 -7,1 -6,0 0,7 2,1 5,1 27 14 48 26 E 30 0 -
13.12.2018 16:00:00 -6,0 -7,6 -6,2 0,7 2,1 5,1 31 17 49 27 E 35 4 -
13.12.2018 15:00:00 -5,3 -6,6 -5,4 0,7 2,1 5,1 21 12 46 25 E 28 52 0,0
13.12.2018 14:00:00 -5,6 -7,1 -6,0 0,7 2,1 5,1 28 15 44 24 E 30 50 0,0
13.12.2018 13:00:00 -5,2 -6,5 -5,1 0,7 2,1 5,1 21 11 40 22 E 30 46 0,0
13.12.2018 12:00:00 -5,5 -6,8 -5,5 0,7 2,1 5,1 21 12 34 18 E 30 31 0,0
13.12.2018 11:00:00 -6,0 -7,1 -6,7 0,7 2,1 5,1 23 12 39 21 E 18 55 0,0
13.12.2018 10:00:00 -6,2 -7,1 -6,6 0,7 2,1 5,1 22 12 38 21 E 14 6 0,0
13.12.2018 09:00:00 -6,1 -6,9 -6,1 0,7 2,2 5,1 24 13 45 24 E 15 0 0,0
13.12.2018 08:00:00 -5,9 -6,6 -6,0 0,7 2,2 5,2 26 14 39 21 E 18 0 0,0
13.12.2018 07:00:00 -6,1 -6,9 -6,7 0,7 2,2 5,2 23 12 38 20 E 20 0 0,0
13.12.2018 06:00:00 -5,8 -6,6 -6,0 0,8 2,2 5,2 22 12 34 18 E 20 0 0,0
13.12.2018 05:00:00 -5,7 -6,4 -6,3 0,8 2,2 5,2 20 11 38 20 E 20 0 0,0
13.12.2018 04:00:00 -5,6 -6,4 -6,4 0,8 2,2 5,2 24 13 39 21 E 30 0 0,0
13.12.2018 03:00:00 -5,0 -5,6 -5,4 0,8 2,2 5,2 27 15 44 24 E 25 0 0,0
13.12.2018 02:00:00 -4,5 -5,1 -5,5 0,8 2,2 5,2 22 12 37 20 E 25 0 0,0
13.12.2018 01:00:00 -3,7 -4,2 -3,7 0,8 2,2 5,2 18 10 28 15 ENE 15 0 0,0
13.12.2018 00:00:00 -3,9 -4,5 -4,3 0,8 2,2 5,2 12 6 25 14 E 30 0 0,0
12.12.2018 23:00:00 -3,6 -4,0 -3,7 0,8 2,2 5,2 18 10 27 14 E 25 0 0,0
12.12.2018 22:00:00 -3,0 -3,3 -3,1 0,8 2,2 5,2 16 9 26 14 E 0,6 0 0,0
12.12.2018 21:00:00 -3,0 -3,3 -3,1 0,8 2,2 5,2 15 8 26 14 E 12 0 0,0
12.12.2018 20:00:00 -3,0 -3,3 -3,0 0,8 2,2 5,2 13 7 27 14 ENE 18 0 0,0
12.12.2018 19:00:00 -2,8 -3,1 -2,9 0,8 2,2 5,2 15 8 27 15 ENE 20 0 0,0
12.12.2018 18:00:00 -2,9 -3,2 -2,9 0,8 2,2 5,2 14 7 26 14 ENE 20 0 0,0
12.12.2018 17:00:00 -2,8 -3,1 -2,8 0,8 2,2 5,2 16 9 33 18 NE 0,9 0 0,0
12.12.2018 16:00:00 -3,1 -3,5 -3,1 0,8 2,2 5,2 21 11 36 20 NE 25 0 0,0
12.12.2018 15:00:00 -2,3 -2,5 -2,2 0,8 2,2 5,2 16 9 33 18 NNE 0,3 0 0,0
12.12.2018 14:00:00 -2,1 -2,4 -1,9 0,8 2,3 5,2 21 11 37 20 NNE 0,1 0 0,0
12.12.2018 13:00:00 -1,9 -2,2 -1,5 0,8 2,3 5,2 22 12 30 16 N 0,2 0 0,0
12.12.2018 12:00:00 -1,8 -2,2 -1,0 0,8 2,3 5,2 18 10 26 14 N 0,1 0 0,0
12.12.2018 11:00:00 -2,2 -2,5 -2,0 0,8 2,3 5,2 19 10 25 14 N 0,1 2 0,0
12.12.2018 10:00:00 -2,4 -2,7 -2,2 0,8 2,3 5,2 17 9 32 17 NNE 0,1 0 0,0
12.12.2018 09:00:00 -2,5 -2,7 -2,5 0,8 2,3 5,2 20 11 31 17 NNE 0,1 0 0,4
12.12.2018 08:00:00 -2,4 -2,6 -2,4 0,8 2,3 5,2 24 13 31 17 N 0,1 0 0,5
12.12.2018 07:00:00 -2,5 -2,7 -2,5 0,8 2,3 5,2 21 11 30 16 N 0,2 0 0,3
12.12.2018 06:00:00 -2,5 -2,7 -2,5 0,8 2,3 5,2 23 13 35 19 N 0,2 0 0,2
12.12.2018 05:00:00 -2,5 -2,7 -2,5 0,8 2,3 5,2 26 14 39 21 N 0,2 0 0,0
12.12.2018 04:00:00 -2,5 -2,7 -2,5 0,8 2,3 5,2 26 14 37 20 N 0,2 0 0,0
12.12.2018 03:00:00 -2,5 -2,7 -2,5 0,9 2,3 5,2 25 14 37 20 N 0,3 0 0,0
12.12.2018 02:00:00 -2,3 -2,5 -2,3 0,9 2,3 5,2 26 14 40 21 NNW 0,4 0 0,1
12.12.2018 01:00:00 -2,2 -2,3 -2,2 0,9 2,3 5,2 25 14 41 22 NNW 0,3 0 0,0
12.12.2018 00:00:00 -2,2 -2,3 -2,2 0,9 2,4 5,2 26 14 46 25 NNW 0,5 0 0,0
11.12.2018 23:00:00 -1,8 -1,8 -1,9 0,9 2,4 5,2 22 12 35 19 NNW 0,2 0 0,2
11.12.2018 22:00:00 -1,7 -1,8 -1,7 0,9 2,4 5,2 20 11 35 19 NW 0,2 0 0,0
11.12.2018 21:00:00 -1,7 -1,8 -1,7 0,9 2,4 5,2 24 13 36 20 NNW 0,1 0 0,3
11.12.2018 20:00:00 -1,6 -1,6 -1,6 0,9 2,4 5,2 20 11 33 18 NW 0,2 0 0,0
11.12.2018 19:00:00 -1,6 -1,6 -1,6 0,9 2,4 5,2 27 14 36 20 NNW 0,3 0 0,0
11.12.2018 18:00:00 -1,5 -1,5 -1,5 0,9 2,4 5,2 22 12 40 22 NW 0,4 0 0,1
11.12.2018 17:00:00 -1,4 -1,4 -1,4 0,9 2,4 5,2 24 13 38 21 NW 0,2 0 0,0
11.12.2018 16:00:00 -1,4 -1,4 -1,4 0,9 2,4 5,2 27 15 40 22 NW 2,0 0 0,2
11.12.2018 15:00:00 -1,3 -1,3 -1,2 1,0 2,4 5,2 27 14 42 23 NW 0,1 0 0,2
11.12.2018 14:00:00 -1,3 -1,4 -1,3 1,0 2,4 5,2 25 14 44 24 NW 0,1 0 0,1
11.12.2018 13:00:00 -1,5 -1,6 -1,4 1,0 2,4 5,2 31 17 49 26 NW 0,1 0 0,9
11.12.2018 12:00:00 -1,6 -1,7 -1,4 1,0 2,4 5,2 24 13 40 22 NW 0,1 0 0,1
11.12.2018 11:00:00 -1,9 -2,0 -1,9 1,0 2,4 5,2 22 12 35 19 NW 0,1 0 0,0
11.12.2018 10:00:00 -2,1 -2,2 -2,1 0,9 2,5 5,2 21 12 40 22 NW 0,1 0 0,3
11.12.2018 09:00:00 -2,2 -2,3 -2,2 0,9 2,5 5,2 23 12 36 20 NW 0,1 0 0,1
11.12.2018 08:00:00 -2,1 -2,2 -2,1 0,9 2,5 5,2 18 10 34 18 NW 0,1 0 0,0
11.12.2018 07:00:00 -2,1 -2,2 -2,1 0,9 2,5 5,2 23 12 39 21 NW 0,1 0 0,3
11.12.2018 06:00:00 -2,2 -2,3 -2,2 0,9 2,5 5,2 24 13 42 23 NW 0,1 0 0,3
11.12.2018 05:00:00 -2,2 -2,3 -2,2 0,9 2,5 5,2 22 12 45 24 NW 0,1 0 0,4
11.12.2018 04:00:00 -2,1 -2,2 -2,1 0,9 2,5 5,3 29 16 48 26 NW 0,1 0 0,0
11.12.2018 03:00:00 -2,0 -2,1 -2,0 0,9 2,5 5,3 32 17 49 27 NW 0,1 0 0,1
11.12.2018 02:00:00 -2,0 -2,1 -2,0 0,9 2,5 5,3 31 17 50 27 NW 0,1 0 1,3
11.12.2018 01:00:00 -2,0 -2,1 -2,0 0,9 2,5 5,3 30 16 42 23 NW 0,1 0 0,5
11.12.2018 00:00:00 -2,1 -2,2 -2,1 0,9 2,6 5,3 27 15 46 25 NW 0,1 0 0,0
10.12.2018 23:00:00 -2,2 -2,3 -2,2 1,0 2,6 5,3 27 15 41 22 NW 0,1 0 0,0
10.12.2018 22:00:00 -2,4 -2,5 -2,3 1,0 2,6 5,3 24 13 45 24 NW 0,1 0 0,0
10.12.2018 21:00:00 -2,3 -2,4 -2,3 1,0 2,6 5,3 23 13 39 21 NW 0,1 0 0,0
10.12.2018 20:00:00 -2,2 -2,3 -2,1 1,0 2,6 5,3 24 13 50 27 NW 0,1 0 0,4
10.12.2018 19:00:00 -2,0 -2,1 -2,0 1,0 2,6 5,3 24 13 49 26 NW 0,2 0 0,7
10.12.2018 18:00:00 -1,8 -1,9 -1,8 1,0 2,6 5,3 27 15 48 26 WNW 0,2 0 0,0
10.12.2018 17:00:00 -1,7 -1,8 -1,7 1,0 2,7 5,3 25 13 48 26 WNW 0,3 0 0,0
10.12.2018 16:00:00 -1,7 -1,7 -1,7 1,0 2,7 5,3 32 17 53 29 NW 0,8 0 0,4
10.12.2018 15:00:00 -1,6 -1,6 -1,5 1,1 2,7 5,3 27 14 58 32 WNW 0,2 0 0,9
10.12.2018 14:00:00 -1,3 -1,3 -1,3 1,1 2,7 5,3 24 13 42 23 WNW 0,4 0 0,0
10.12.2018 13:00:00 -1,5 -1,6 -1,4 1,1 2,7 5,3 25 13 48 26 WNW 0,2 0 0,2
10.12.2018 12:00:00 -1,7 -1,8 -1,6 1,0 2,7 5,3 27 15 47 26 WNW 12 0 0,1
10.12.2018 11:00:00 -1,6 -1,7 -1,5 1,0 2,8 5,3 27 15 49 27 WNW 0,3 0 0,0
10.12.2018 10:00:00 -1,8 -1,9 -1,7 1,0 2,8 5,3 28 15 58 32 WNW 0,2 0 0,1
10.12.2018 09:00:00 -1,8 -1,8 -1,8 1,0 2,8 5,3 29 16 50 27 WNW 0,3 0 0,0
10.12.2018 08:00:00 -1,7 -1,7 -1,7 1,1 2,8 5,3 28 15 55 30 WNW 0,4 0 0,0
10.12.2018 07:00:00 -1,6 -1,6 -1,5 1,1 2,9 5,3 29 15 54 29 WNW 0,1 0 0,0
10.12.2018 06:00:00 -1,4 -1,4 -1,3 1,1 2,9 5,3 27 15 49 26 WNW 0,1 0 0,0
10.12.2018 05:00:00 -1,1 -1,1 -1,1 1,1 2,9 5,3 27 14 50 27 WNW 0,2 0 0,0
10.12.2018 04:00:00 -0,8 -0,8 -0,8 1,1 2,9 5,3 30 16 51 28 NW 0,2 0 0,0
10.12.2018 03:00:00 -0,8 -0,8 -0,8 1,1 3,0 5,3 28 15 50 27 WNW 0,1 0 0,0
10.12.2018 02:00:00 -0,8 -0,8 -0,8 1,2 3,0 5,3 29 15 53 29 WNW 7 0 0,0
10.12.2018 01:00:00 -0,5 -0,5 -0,6 1,2 3,1 5,3 34 18 61 33 WNW 0,4 0 0,0
10.12.2018 00:00:00 -0,2 -0,2 -0,1 1,2 3,1 5,3 31 17 52 28 WNW 0,1 0 0,0
09.12.2018 23:00:00 0,1 0,1 0,1 1,3 3,1 5,3 40 21 63 34 NW 0,3 0 0,0
09.12.2018 22:00:00 0,7 0,7 0,6 1,3 3,2 5,3 33 18 55 30 WNW 0,1 0 0,0
09.12.2018 21:00:00 0,8 0,8 0,7 1,4 3,2 5,3 28 15 51 28 WNW 0,1 0 0,0
09.12.2018 20:00:00 0,7 0,7 0,6 1,5 3,2 5,3 27 15 48 26 WNW 0,1 0 0,0
09.12.2018 19:00:00 0,7 0,7 0,6 1,6 3,2 5,3 30 16 50 27 WNW 0,1 0 0,0
09.12.2018 18:00:00 0,5 0,5 0,2 1,8 3,3 5,3 25 13 44 24 WNW 0,1 0 0,1
09.12.2018 17:00:00 0,2 0,2 0,0 2,0 3,3 5,3 26 14 40 22 WNW 0,1 0 2,4
09.12.2018 16:00:00 0,2 0,2 0,0 2,4 3,3 5,3 27 15 52 28 NW 0,3 0 2,5
09.12.2018 15:00:00 1,9 1,9 1,9 2,4 3,3 5,3 30 16 52 28 W 0,1 0 0,1
09.12.2018 14:00:00 1,9 1,9 1,9 2,3 3,3 5,3 35 19 59 32 W 0,2 0 0,3
09.12.2018 13:00:00 1,9 1,9 1,9 2,1 3,4 5,3 44 24 66 36 WSW 0,2 0 0,5
09.12.2018 12:00:00 1,8 1,8 1,8 2,0 3,4 5,3 45 24 66 36 WSW 0,2 0 0,1
09.12.2018 11:00:00 1,7 1,7 1,7 1,9 3,4 5,3 33 18 56 30 W 0,2 0 1,0
09.12.2018 10:00:00 1,3 1,3 1,0 2,0 3,4 5,3 40 22 62 33 W 0,2 0 1,2
09.12.2018 09:00:00 1,1 1,1 0,3 2,3 3,5 5,3 34 18 53 28 WSW 0,4 0 2,5
09.12.2018 08:00:00 1,7 1,7 1,7 2,6 3,4 5,3 30 16 58 31 W 0,2 0 1,8
09.12.2018 07:00:00 1,5 1,5 1,2 2,8 3,4 5,4 37 20 60 32 WSW 0,4 0 0,3

tt = temperature
td = dewpoint
tt 5cm = temperature 5cm
tt -5cm = temperature -5cm
tt -20cm = temperature -20cm
tt -100cm = temperature -100cm
ff = wind speed
fx = gusts
dd = wind direction
vv = visibility
sd = sunshine duration
rr = precipitation

Next stations